Time;durP1;ratioP1;P1;durP2;ratioP2;P2;SDS_P1;SDS_P2;PMS_P1;PMS_P2;Temp;Humidity;BMP_temperature;BMP_pressure;BME280_temperature;BME280_humidity;BME280_pressure;Samples;Min_cycle;Max_cycle;Signal;HPM_P1;HPM_P2
2023/07/21 00:00:36;;;;;;;2.30;2.10;;;;;;;15.40;64.84;100376.70;110984;1209;97606;-62
2023/07/21 00:03:01;;;;;;;6.20;2.70;;;;;;;15.39;64.86;100374.92;110755;1212;139836;-62
2023/07/21 00:05:27;;;;;;;7.20;2.30;;;;;;;15.40;65.11;100379.38;110931;1206;97626;-63
2023/07/21 00:07:52;;;;;;;6.90;2.10;;;;;;;15.42;65.12;100376.37;110871;1209;140356;-62
2023/07/21 00:10:17;;;;;;;7.10;2.40;;;;;;;15.42;65.18;100378.52;110985;1212;97613;-62
2023/07/21 00:12:47;;;;;;;5.10;2.10;;;;;;;15.43;65.12;100378.45;110985;1209;97814;-62
2023/07/21 00:15:13;;;;;;;7.50;2.00;;;;;;;15.40;65.34;100373.80;110805;1206;140637;-63
2023/07/21 00:17:38;;;;;;;3.50;2.20;;;;;;;15.39;65.44;100372.78;110952;1212;97709;-63
2023/07/21 00:20:12;;;;;;;2.10;1.90;;;;;;;15.40;65.43;100373.64;110804;1209;139191;-63
2023/07/21 00:22:38;;;;;;;5.10;2.00;;;;;;;15.41;65.55;100370.69;111052;1222;96459;-63
2023/07/21 00:25:10;;;;;;;3.70;1.90;;;;;;;15.42;65.58;100373.70;110951;1210;97666;-63
2023/07/21 00:27:40;;;;;;;2.80;1.80;;;;;;;15.43;65.53;100371.23;110853;1212;138944;-62
2023/07/21 00:30:09;;;;;;;4.60;1.60;;;;;;;15.46;65.62;100372.45;110993;1211;100095;-63
2023/07/21 00:32:35;;;;;;;2.80;1.60;;;;;;;15.50;65.54;100368.77;110971;1212;139200;-63
2023/07/21 00:35:03;;;;;;;2.70;1.30;;;;;;;15.54;65.49;100369.55;111267;1206;97704;-62
2023/07/21 00:37:29;;;;;;;4.00;1.60;;;;;;;15.57;65.49;100369.20;110954;1211;97643;-63
2023/07/21 00:39:54;;;;;;;4.60;1.80;;;;;;;15.61;65.54;100363.38;110816;1206;138466;-63
2023/07/21 00:42:20;;;;;;;2.00;1.70;;;;;;;15.64;65.49;100366.92;111019;1206;97801;-63
2023/07/21 00:44:45;;;;;;;1.90;1.40;;;;;;;15.66;65.28;100361.91;110763;1209;139080;-63
2023/07/21 00:47:10;;;;;;;1.90;1.50;;;;;;;15.66;65.35;100363.70;111040;1218;97587;-63
2023/07/21 00:49:37;;;;;;;4.40;1.60;;;;;;;15.65;65.07;100362.70;110962;1211;97707;-63
2023/07/21 00:52:03;;;;;;;3.30;1.50;;;;;;;15.64;65.17;100365.81;110754;1211;140495;-63
2023/07/21 00:54:29;;;;;;;6.50;1.70;;;;;;;15.63;65.06;100367.89;111230;1208;96424;-63
2023/07/21 00:56:57;;;;;;;4.80;1.70;;;;;;;15.61;64.90;100364.41;110830;1212;138904;-63
2023/07/21 00:59:23;;;;;;;2.70;1.80;;;;;;;15.59;64.86;100361.14;110985;1211;97720;-63
2023/07/21 01:01:48;;;;;;;2.10;1.60;;;;;;;15.59;64.87;100359.01;110882;1211;140093;-63
2023/07/21 01:04:13;;;;;;;2.60;1.50;;;;;;;15.57;64.86;100358.78;110979;1212;96443;-63
2023/07/21 01:06:41;;;;;;;7.00;1.80;;;;;;;15.56;64.80;100359.73;110934;1212;97765;-63
2023/07/21 01:09:08;;;;;;;6.60;2.50;;;;;;;15.54;64.79;100364.33;110807;1211;139496;-63
2023/07/21 01:11:35;;;;;;;8.50;2.30;;;;;;;15.51;64.72;100371.60;110966;1206;97591;-63
2023/07/21 01:14:03;;;;;;;3.50;1.70;;;;;;;15.45;64.69;100370.05;110794;1211;140738;-63
2023/07/21 01:16:29;;;;;;;3.80;1.60;;;;;;;15.40;64.86;100366.39;110929;1211;98110;-63
2023/07/21 01:18:56;;;;;;;2.40;1.80;;;;;;;15.38;64.74;100368.55;110942;1212;98190;-63
2023/07/21 01:21:34;;;;;;;4.70;2.00;;;;;;;15.35;64.81;100361.92;110816;1209;138306;-63
2023/07/21 01:24:12;;;;;;;2.10;1.80;;;;;;;15.31;64.83;100360.88;110824;1211;97728;-63
2023/07/21 01:26:39;;;;;;;3.50;1.90;;;;;;;15.27;64.85;100359.92;110844;1211;138895;-63
2023/07/21 01:29:08;;;;;;;3.10;1.60;;;;;;;15.24;64.81;100359.75;110890;1206;97617;-63
2023/07/21 01:31:35;;;;;;;7.20;2.80;;;;;;;15.22;64.88;100359.85;110933;1206;99989;-63
2023/07/21 01:34:02;;;;;;;3.20;2.10;;;;;;;15.20;64.87;100359.80;110825;1209;138725;-63
2023/07/21 01:36:30;;;;;;;2.90;1.50;;;;;;;15.17;64.74;100362.70;110943;1222;97697;-63
2023/07/21 01:38:56;;;;;;;3.90;1.70;;;;;;;15.16;64.95;100364.75;110883;1222;139630;-63
2023/07/21 01:41:23;;;;;;;2.40;1.60;;;;;;;15.16;64.81;100364.98;111058;1212;98295;-63
2023/07/21 01:43:49;;;;;;;4.90;1.60;;;;;;;15.15;64.74;100363.73;110967;1211;138407;-63
2023/07/21 01:46:15;;;;;;;1.70;1.40;;;;;;;15.13;64.77;100364.99;111010;1206;97707;-63
2023/07/21 01:48:41;;;;;;;5.60;1.70;;;;;;;15.09;64.63;100358.40;110985;1211;97713;-64
2023/07/21 01:51:07;;;;;;;3.50;1.90;;;;;;;15.07;64.76;100362.36;110818;1211;138223;-62
2023/07/21 01:53:35;;;;;;;8.30;1.70;;;;;;;15.06;64.59;100362.38;111030;1206;97685;-63
2023/07/21 01:56:24;;;;;;;7.00;2.00;;;;;;;15.06;64.57;100364.38;110880;1211;138478;-63
2023/07/21 01:58:52;;;;;;;1.90;1.80;;;;;;;15.04;64.46;100363.64;111185;1206;97677;-63
2023/07/21 02:01:19;;;;;;;3.90;1.40;;;;;;;15.01;64.50;100364.37;110949;1209;111581;-63
2023/07/21 02:03:47;;;;;;;5.80;1.80;;;;;;;14.98;64.30;100365.45;110892;1211;139039;-62
2023/07/21 02:06:16;;;;;;;1.70;1.50;;;;;;;14.96;64.46;100367.95;111204;1211;97615;-63
2023/07/21 02:08:42;;;;;;;5.50;1.80;;;;;;;14.92;64.34;100362.40;110841;1206;140280;-63
2023/07/21 02:11:08;;;;;;;2.30;1.90;;;;;;;14.89;64.34;100364.08;110930;1211;97703;-63
2023/07/21 02:13:33;;;;;;;3.00;1.50;;;;;;;14.85;64.26;100367.90;110988;1206;97795;-62
2023/07/21 02:15:59;;;;;;;4.20;1.80;;;;;;;14.82;64.36;100367.77;110994;1212;139287;-63
2023/07/21 02:18:24;;;;;;;3.10;2.20;;;;;;;14.78;64.26;100370.88;110981;1211;97698;-63
2023/07/21 02:20:49;;;;;;;5.10;1.90;;;;;;;14.75;64.26;100367.31;110816;1206;138834;-63
2023/07/21 02:23:15;;;;;;;2.70;1.50;;;;;;;14.72;64.31;100371.32;110997;1211;97699;-63
2023/07/21 02:25:41;;;;;;;4.00;1.80;;;;;;;14.67;64.29;100367.65;111053;1209;97689;-63
2023/07/21 02:28:07;;;;;;;3.30;1.70;;;;;;;14.64;64.22;100369.48;110838;1206;139532;-63
2023/07/21 02:30:32;;;;;;;3.50;1.80;;;;;;;14.59;64.38;100373.52;110943;1211;97619;-63
2023/07/21 02:32:58;;;;;;;3.70;1.70;;;;;;;14.57;64.39;100374.45;110914;1209;138452;-63
2023/07/21 02:35:23;;;;;;;7.00;1.80;;;;;;;14.54;64.37;100377.66;110945;1211;97773;-63
2023/07/21 02:37:48;;;;;;;3.00;1.70;;;;;;;14.51;64.43;100376.94;110894;1216;138562;-63
2023/07/21 02:40:14;;;;;;;5.30;1.80;;;;;;;14.46;64.64;100375.66;110995;1212;100117;-63
2023/07/21 02:42:40;;;;;;;7.60;2.50;;;;;;;14.44;64.53;100373.67;110973;1206;97771;-63
2023/07/21 02:45:06;;;;;;;6.60;2.10;;;;;;;14.41;64.59;100377.40;110877;1212;138890;-63
2023/07/21 02:47:31;;;;;;;3.60;1.50;;;;;;;14.39;64.58;100374.68;110959;1222;96444;-63
2023/07/21 02:49:56;;;;;;;3.10;2.10;;;;;;;14.35;64.72;100378.17;110735;1206;138596;-63
2023/07/21 02:52:22;;;;;;;2.40;1.90;;;;;;;14.31;64.78;100379.11;110943;1218;97722;-63
2023/07/21 02:54:47;;;;;;;3.10;1.90;;;;;;;14.27;64.83;100376.48;110905;1210;98100;-63
2023/07/21 02:57:13;;;;;;;8.20;2.30;;;;;;;14.23;64.87;100374.58;110883;1209;139022;-63
2023/07/21 02:59:38;;;;;;;5.00;2.30;;;;;;;14.20;64.96;100378.04;110875;1212;97639;-63
2023/07/21 03:02:05;;;;;;;3.60;1.90;;;;;;;14.15;65.11;100378.64;110779;1212;138892;-63
2023/07/21 03:04:31;;;;;;;2.60;2.00;;;;;;;14.13;65.09;100382.38;110959;1209;98071;-62
2023/07/21 03:06:57;;;;;;;3.20;1.70;;;;;;;14.10;65.29;100376.84;111055;1211;97684;-64
2023/07/21 03:09:22;;;;;;;8.50;2.20;;;;;;;14.08;65.17;100373.75;110867;1206;138905;-63
2023/07/21 03:11:48;;;;;;;2.40;2.00;;;;;;;14.05;65.24;100373.42;110905;1208;97721;-63
2023/07/21 03:14:13;;;;;;;2.70;1.90;;;;;;;14.02;65.51;100376.40;110922;1206;140341;-63
2023/07/21 03:16:40;;;;;;;6.00;2.70;;;;;;;14.01;65.48;100373.64;110979;1212;98136;-63
2023/07/21 03:19:05;;;;;;;4.30;2.90;;;;;;;14.00;65.56;100373.70;110859;1212;97779;-63
2023/07/21 03:21:31;;;;;;;2.40;2.10;;;;;;;13.98;65.61;100377.75;110963;1206;139676;-64
2023/07/21 03:23:56;;;;;;;2.80;1.90;;;;;;;13.97;65.71;100375.45;110903;1212;97678;-63
2023/07/21 03:26:22;;;;;;;4.30;2.00;;;;;;;13.96;65.66;100378.57;110994;1206;138992;-63
2023/07/21 03:28:48;;;;;;;2.60;2.20;;;;;;;13.95;65.73;100378.65;110943;1211;98230;-63
2023/07/21 03:31:13;;;;;;;6.90;2.10;;;;;;;13.95;65.80;100377.39;110981;1206;97600;-64
2023/07/21 03:33:38;;;;;;;4.60;2.90;;;;;;;13.94;65.88;100381.05;110880;1210;138591;-64
2023/07/21 03:36:05;;;;;;;6.00;2.20;;;;;;;13.93;65.88;100380.02;110932;1209;97766;-63
2023/07/21 03:38:35;;;;;;;4.70;1.80;;;;;;;13.92;65.93;100383.33;110860;1208;139051;-63
2023/07/21 03:41:02;;;;;;;8.10;2.00;;;;;;;13.90;66.06;100384.68;111058;1206;97574;-63
2023/07/21 03:43:27;;;;;;;5.60;1.70;;;;;;;13.91;66.24;100386.11;110987;1206;97603;-63
2023/07/21 03:46:00;;;;;;;2.90;2.20;;;;;;;13.91;66.25;100390.91;110815;1206;138418;-63
2023/07/21 03:48:26;;;;;;;3.30;2.00;;;;;;;13.90;66.19;100393.18;110971;1206;97647;-63
2023/07/21 03:50:57;;;;;;;4.80;2.00;;;;;;;13.88;66.35;100394.53;110749;1212;138286;-63
2023/07/21 03:53:24;;;;;;;1.50;1.40;;;;;;;13.86;66.43;100397.15;111086;1206;110674;-63
2023/07/21 03:55:49;;;;;;;5.80;2.00;;;;;;;13.85;66.38;100395.95;110914;1209;139601;-64
2023/07/21 03:58:15;;;;;;;5.00;2.20;;;;;;;13.86;66.56;100393.77;111160;1206;97734;-63
2023/07/21 04:00:45;;;;;;;3.10;2.00;;;;;;;13.86;66.59;100392.84;110999;1209;97712;-63
2023/07/21 04:03:11;;;;;;;8.50;2.70;;;;;;;13.86;66.60;100391.45;110977;1209;139059;-63
2023/07/21 04:05:36;;;;;;;3.00;1.90;;;;;;;13.85;66.77;100396.16;111016;1206;97541;-63
2023/07/21 04:08:02;;;;;;;4.30;2.10;;;;;;;13.85;66.81;100392.89;110833;1213;139859;-62
2023/07/21 04:10:29;;;;;;;4.80;1.90;;;;;;;13.86;66.73;100394.13;110955;1206;98039;-62
2023/07/21 04:12:54;;;;;;;6.50;2.20;;;;;;;13.85;66.91;100395.45;110991;1210;98281;-62
2023/07/21 04:15:20;;;;;;;5.20;2.40;;;;;;;13.84;66.96;100397.64;110912;1209;140716;-63
2023/07/21 04:17:45;;;;;;;5.20;1.80;;;;;;;13.85;67.03;100397.23;111011;1211;97678;-63
2023/07/21 04:20:13;;;;;;;6.40;2.20;;;;;;;13.87;67.15;100397.13;110870;1208;142694;-62
2023/07/21 04:22:38;;;;;;;2.10;1.70;;;;;;;13.89;67.14;100397.90;110992;1216;97638;-62
2023/07/21 04:25:04;;;;;;;5.20;2.00;;;;;;;13.91;67.32;100396.52;110933;1206;97662;-63
2023/07/21 04:27:29;;;;;;;4.30;2.20;;;;;;;13.94;67.34;100395.75;110848;1212;139358;-63
2023/07/21 04:29:55;;;;;;;6.20;2.30;;;;;;;13.99;67.38;100396.23;111007;1206;100253;-63
2023/07/21 04:32:21;;;;;;;5.60;2.10;;;;;;;14.03;67.45;100393.27;110930;1212;139443;-63
2023/07/21 04:34:46;;;;;;;7.00;1.60;;;;;;;14.08;67.48;100395.27;110929;1222;97337;-63
2023/07/21 04:37:13;;;;;;;6.10;2.10;;;;;;;14.13;67.52;100395.91;110992;1206;97597;-63
2023/07/21 04:39:42;;;;;;;6.40;2.60;;;;;;;14.17;67.60;100395.99;110845;1211;139491;-63
2023/07/21 04:42:09;;;;;;;3.00;2.00;;;;;;;14.22;67.64;100397.31;110967;1206;98806;-63
2023/07/21 04:44:34;;;;;;;2.90;1.50;;;;;;;14.25;67.63;100393.48;111060;1211;139031;-62
2023/07/21 04:47:00;;;;;;;6.80;2.40;;;;;;;14.29;67.67;100393.96;110950;1212;99171;-63
2023/07/21 04:49:25;;;;;;;4.20;2.10;;;;;;;14.32;67.74;100392.34;111183;1211;97609;-63
2023/07/21 04:51:50;;;;;;;4.60;1.80;;;;;;;14.35;67.80;100388.74;110763;1208;138849;-63
2023/07/21 04:54:16;;;;;;;3.00;1.70;;;;;;;14.37;67.85;100387.71;110901;1208;97618;-62
2023/07/21 04:56:42;;;;;;;2.90;2.30;;;;;;;14.39;67.84;100387.79;110744;1213;138933;-63
2023/07/21 04:59:08;;;;;;;2.80;1.90;;;;;;;14.42;67.92;100386.17;110990;1211;97682;-63
2023/07/21 05:01:34;;;;;;;6.20;2.30;;;;;;;14.45;67.99;100385.96;110944;1206;97696;-63
2023/07/21 05:03:59;;;;;;;2.90;1.80;;;;;;;14.49;67.83;100390.79;110740;1212;138409;-63
2023/07/21 05:06:25;;;;;;;4.60;1.90;;;;;;;14.52;67.94;100391.81;110984;1206;97822;-63
2023/07/21 05:08:51;;;;;;;4.10;1.50;;;;;;;14.56;68.07;100390.65;110940;1206;138919;-63
2023/07/21 05:11:16;;;;;;;3.10;1.50;;;;;;;14.61;67.95;100391.77;110747;1211;97859;-63
2023/07/21 05:13:41;;;;;;;4.60;1.30;;;;;;;14.66;67.92;100383.06;110883;1208;97671;-63
2023/07/21 05:16:07;;;;;;;3.40;1.60;;;;;;;14.72;68.01;100382.83;110780;1211;139306;-63
2023/07/21 05:18:33;;;;;;;5.50;1.50;;;;;;;14.77;68.04;100384.63;110961;1211;97649;-64
2023/07/21 05:20:58;;;;;;;3.40;1.60;;;;;;;14.83;67.98;100384.20;110758;1208;138878;-64
2023/07/21 05:23:23;;;;;;;5.80;1.50;;;;;;;14.89;68.06;100384.93;110934;1208;97605;-63
2023/07/21 05:25:57;;;;;;;5.40;1.60;;;;;;;14.95;68.09;100386.02;110655;1211;138685;-63
2023/07/21 05:28:23;;;;;;;4.90;2.10;;;;;;;15.00;68.10;100387.12;110841;1208;100094;-63
2023/07/21 05:30:48;;;;;;;4.60;2.80;;;;;;;15.04;67.97;100384.30;110787;1208;99005;-63
2023/07/21 05:33:14;;;;;;;7.10;4.30;;;;;;;15.09;68.04;100383.08;110868;1211;140026;-63
2023/07/21 05:35:39;;;;;;;9.20;3.00;;;;;;;15.14;68.05;100384.90;110759;1209;96482;-63
2023/07/21 05:38:04;;;;;;;7.10;1.90;;;;;;;15.19;68.03;100386.73;110794;1208;139129;-63
2023/07/21 05:40:29;;;;;;;5.70;1.50;;;;;;;15.24;67.97;100384.41;110820;1209;97604;-64
2023/07/21 05:42:54;;;;;;;6.30;2.10;;;;;;;15.28;68.10;100383.41;110852;1208;97690;-63
2023/07/21 05:45:20;;;;;;;2.20;1.60;;;;;;;15.33;67.92;100383.23;110812;1209;139754;-63
2023/07/21 05:47:45;;;;;;;9.60;1.50;;;;;;;15.38;67.88;100386.69;110744;1211;97652;-63
2023/07/21 05:50:11;;;;;;;3.40;1.30;;;;;;;15.45;68.04;100387.17;110866;1206;140170;-63
2023/07/21 05:52:36;;;;;;;5.50;1.70;;;;;;;15.49;67.88;100383.61;110885;1210;97620;-64
2023/07/21 05:55:03;;;;;;;5.80;1.50;;;;;;;15.53;67.82;100384.05;110897;1211;97692;-64
2023/07/21 05:57:28;;;;;;;8.70;1.70;;;;;;;15.58;67.91;100388.21;110757;1209;141335;-63
2023/07/21 05:59:53;;;;;;;10.60;2.50;;;;;;;15.64;67.76;100384.39;110748;1212;98275;-63
2023/07/21 06:02:18;;;;;;;3.10;1.20;;;;;;;15.69;67.78;100390.69;110735;1209;141516;-63
2023/07/21 06:04:44;;;;;;;8.90;1.60;;;;;;;15.75;67.73;100388.68;110712;1210;107845;-63
2023/07/21 06:07:10;;;;;;;4.80;1.70;;;;;;;15.80;67.76;100387.20;110870;1212;97623;-63
2023/07/21 06:09:36;;;;;;;2.60;1.40;;;;;;;15.87;67.73;100384.21;110840;1208;138790;-62
2023/07/21 06:12:01;;;;;;;9.80;1.70;;;;;;;15.94;67.78;100388.10;110931;1212;100032;-63
2023/07/21 06:14:26;;;;;;;5.80;1.90;;;;;;;16.01;67.63;100384.02;110843;1206;139961;-64
2023/07/21 06:16:53;;;;;;;5.10;1.30;;;;;;;16.07;67.61;100383.20;110977;1206;96449;-62
2023/07/21 06:19:18;;;;;;;3.10;1.20;;;;;;;16.12;67.52;100386.42;110866;1211;97619;-63
2023/07/21 06:21:44;;;;;;;6.80;1.30;;;;;;;16.15;67.38;100385.84;110743;1212;138949;-63
2023/07/21 06:24:09;;;;;;;7.80;1.70;;;;;;;16.19;67.41;100385.23;110929;1206;97617;-64
2023/07/21 06:26:34;;;;;;;1.80;0.80;;;;;;;16.23;67.03;100381.30;110771;1209;138454;-63
2023/07/21 06:28:59;;;;;;;4.50;1.10;;;;;;;16.29;67.17;100380.73;110652;1210;97795;-64
2023/07/21 06:31:24;;;;;;;7.20;1.70;;;;;;;16.34;67.04;100376.39;110521;1211;99455;-66
2023/07/21 06:33:50;;;;;;;4.30;1.30;;;;;;;16.41;66.88;100374.64;110769;1206;139116;-65
2023/07/21 06:36:17;;;;;;;2.60;1.00;;;;;;;16.46;66.85;100376.06;110855;1212;97706;-64
2023/07/21 06:38:42;;;;;;;5.50;1.60;;;;;;;16.53;66.76;100380.21;110695;1211;138951;-64
2023/07/21 06:41:08;;;;;;;8.20;1.30;;;;;;;16.60;66.61;100377.05;110756;1206;97604;-64
2023/07/21 06:43:33;;;;;;;1.60;1.10;;;;;;;16.66;66.48;100373.39;111002;1211;97707;-64
2023/07/21 06:45:59;;;;;;;4.60;1.30;;;;;;;16.73;66.39;100369.10;110704;1206;139690;-64
2023/07/21 06:48:24;;;;;;;4.40;0.90;;;;;;;16.81;66.41;100370.61;110994;1206;98491;-64
2023/07/21 06:50:50;;;;;;;4.90;1.30;;;;;;;16.89;66.17;100367.19;110874;1210;139846;-64
2023/07/21 06:53:17;;;;;;;1.50;0.90;;;;;;;16.97;66.21;100365.16;111004;1211;96508;-64
2023/07/21 06:55:49;;;;;;;3.10;1.00;;;;;;;17.05;66.14;100369.25;111012;1211;97668;-64
2023/07/21 06:58:14;;;;;;;2.00;1.10;;;;;;;17.12;66.05;100371.07;111086;1210;97575;-64
2023/07/21 07:00:40;;;;;;;2.20;0.50;;;;;;;17.21;65.77;100369.86;111029;1206;98447;-64
2023/07/21 07:03:05;;;;;;;3.80;1.30;;;;;;;17.23;65.56;100368.06;110930;1208;141050;-64
2023/07/21 07:05:30;;;;;;;2.50;1.00;;;;;;;17.23;65.48;100366.42;111001;1207;97606;-65
2023/07/21 07:07:56;;;;;;;5.20;1.10;;;;;;;17.26;65.43;100367.67;110887;1208;138292;-64
2023/07/21 07:10:21;;;;;;;5.30;0.90;;;;;;;17.35;65.37;100364.48;111039;1206;97708;-64
2023/07/21 07:12:47;;;;;;;2.70;0.80;;;;;;;17.45;64.93;100363.64;110934;1212;97322;-64
2023/07/21 07:15:12;;;;;;;2.90;0.90;;;;;;;17.50;64.55;100362.20;110966;1212;139101;-64
2023/07/21 07:17:37;;;;;;;3.50;1.00;;;;;;;17.52;64.51;100364.19;110999;1206;97683;-65
2023/07/21 07:20:09;;;;;;;1.20;0.80;;;;;;;17.55;64.36;100363.80;110878;1210;138441;-64
2023/07/21 07:22:35;;;;;;;2.50;0.90;;;;;;;17.59;64.25;100358.99;111187;1211;112133;-64
2023/07/21 07:25:00;;;;;;;1.90;1.00;;;;;;;17.63;64.10;100359.02;110905;1212;97600;-64
2023/07/21 07:27:26;;;;;;;1.30;0.70;;;;;;;17.69;63.99;100363.48;110780;1206;139685;-64
2023/07/21 07:29:51;;;;;;;4.60;0.80;;;;;;;17.74;63.76;100365.58;110713;1210;97620;-64
2023/07/21 07:32:17;;;;;;;5.70;0.80;;;;;;;17.78;63.64;100365.64;110631;1206;139094;-64
2023/07/21 07:34:42;;;;;;;3.10;1.20;;;;;;;17.86;63.67;100364.17;110693;1212;100087;-64
2023/07/21 07:37:07;;;;;;;6.90;1.20;;;;;;;17.97;63.51;100365.80;110610;1206;97741;-64
2023/07/21 07:39:32;;;;;;;1.70;1.10;;;;;;;18.04;63.40;100367.73;110631;1212;140413;-64
2023/07/21 07:41:58;;;;;;;2.80;1.30;;;;;;;18.09;63.06;100368.48;110586;1211;97621;-64
2023/07/21 07:44:23;;;;;;;1.80;0.80;;;;;;;18.12;62.91;100371.30;110535;1212;140792;-64
2023/07/21 07:46:48;;;;;;;4.20;1.20;;;;;;;18.19;62.86;100370.95;110703;1210;97624;-64
2023/07/21 07:49:14;;;;;;;3.30;1.10;;;;;;;18.23;62.56;100368.98;110807;1206;98198;-64
2023/07/21 07:51:39;;;;;;;5.50;1.00;;;;;;;18.25;62.45;100370.97;110641;1211;138355;-64
2023/07/21 07:54:05;;;;;;;2.60;1.10;;;;;;;18.28;62.29;100375.41;110556;1212;97664;-64
2023/07/21 07:56:31;;;;;;;4.60;1.00;;;;;;;18.32;62.13;100374.35;110610;1206;139545;-64
2023/07/21 07:58:57;;;;;;;1.80;1.30;;;;;;;18.37;62.04;100374.67;110848;1206;97700;-64
2023/07/21 08:01:23;;;;;;;4.50;1.10;;;;;;;18.43;61.92;100375.09;110611;1206;96603;-64
2023/07/21 08:03:48;;;;;;;6.10;1.00;;;;;;;18.52;61.87;100374.98;110573;1211;138071;-64
2023/07/21 08:06:14;;;;;;;2.70;0.80;;;;;;;18.60;60.89;100381.55;110459;1206;99036;-65
2023/07/21 08:08:40;;;;;;;3.20;1.00;;;;;;;18.58;60.19;100381.68;110447;1212;138110;-64
2023/07/21 08:11:08;;;;;;;3.80;1.00;;;;;;;18.60;59.77;100380.48;110667;1212;98876;-64
2023/07/21 08:13:34;;;;;;;6.30;0.80;;;;;;;18.62;59.59;100383.56;110509;1211;98635;-64
2023/07/21 08:16:00;;;;;;;5.70;0.90;;;;;;;18.65;59.41;100380.77;110944;1211;139380;-64
2023/07/21 08:18:25;;;;;;;1.80;1.00;;;;;;;18.66;59.12;100382.67;110572;1211;97592;-64
2023/07/21 08:20:51;;;;;;;3.20;1.10;;;;;;;18.71;58.96;100383.21;110312;1211;138160;-65
2023/07/21 08:23:17;;;;;;;8.30;0.90;;;;;;;18.80;58.94;100381.52;110411;1210;97662;-65
2023/07/21 08:25:42;;;;;;;0.90;0.50;;;;;;;18.88;58.74;100376.20;110662;1206;98039;-65
2023/07/21 08:28:08;;;;;;;0.70;0.70;;;;;;;18.93;58.55;100373.43;110330;1212;137960;-64
2023/07/21 08:30:34;;;;;;;1.50;0.60;;;;;;;18.95;58.36;100374.48;110636;1212;97588;-64
2023/07/21 08:32:59;;;;;;;1.50;0.80;;;;;;;19.04;57.90;100370.17;110342;1212;138302;-65
2023/07/21 08:35:27;;;;;;;1.40;0.80;;;;;;;19.12;57.39;100372.52;110430;1206;98476;-65
2023/07/21 08:37:52;;;;;;;7.20;1.50;;;;;;;19.16;57.18;100373.53;110279;1212;139661;-65
2023/07/21 08:40:19;;;;;;;3.80;1.10;;;;;;;19.17;56.76;100366.19;110457;1206;98039;-65
2023/07/21 08:42:45;;;;;;;1.60;0.60;;;;;;;19.16;56.50;100365.73;110678;1212;97772;-64
2023/07/21 08:45:14;;;;;;;1.10;0.60;;;;;;;19.18;56.27;100362.26;110605;1212;137854;-65
2023/07/21 08:47:40;;;;;;;1.70;0.70;;;;;;;19.23;56.04;100361.49;111222;1212;99088;-65
2023/07/21 08:50:06;;;;;;;1.00;0.60;;;;;;;19.29;55.81;100358.10;110502;1212;138890;-65
2023/07/21 08:52:33;;;;;;;2.80;0.90;;;;;;;19.34;55.67;100355.65;110669;1206;97627;-64
2023/07/21 08:54:59;;;;;;;6.80;1.10;;;;;;;19.43;55.39;100351.29;110825;1212;97606;-64
2023/07/21 08:57:25;;;;;;;2.50;1.20;;;;;;;19.58;55.04;100352.91;110582;1206;139211;-63
2023/07/21 08:59:54;;;;;;;2.60;0.90;;;;;;;19.73;54.46;100356.69;110620;1212;97721;-65
2023/07/21 09:02:37;;;;;;;6.10;0.90;;;;;;;19.78;54.12;100350.44;110581;1211;138504;-64
2023/07/21 09:05:03;;;;;;;2.40;0.90;;;;;;;19.75;53.88;100352.39;110937;1210;100273;-64
2023/07/21 09:07:30;;;;;;;2.90;0.90;;;;;;;19.75;53.46;100352.53;110524;1212;97758;-64
2023/07/21 09:09:55;;;;;;;6.80;1.60;;;;;;;19.80;53.06;100352.48;110453;1210;137989;-64
2023/07/21 09:12:21;;;;;;;3.30;1.00;;;;;;;19.90;52.59;100350.31;110508;1206;98727;-64
2023/07/21 09:14:47;;;;;;;1.00;0.70;;;;;;;20.01;52.06;100350.49;110319;1212;138107;-64
2023/07/21 09:17:13;;;;;;;1.30;0.70;;;;;;;20.05;51.11;100347.91;110514;1211;100120;-64
2023/07/21 09:19:48;;;;;;;0.80;0.70;;;;;;;20.14;50.86;100346.05;111563;1207;97090;-64
2023/07/21 09:22:14;;;;;;;4.80;1.20;;;;;;;20.18;50.50;100340.60;110529;1207;105619;-64
2023/07/21 09:24:50;;;;;;;1.60;0.90;;;;;;;20.23;50.20;100337.25;110467;1208;98924;-64
2023/07/21 09:27:17;;;;;;;2.40;0.80;;;;;;;20.27;50.07;100328.73;110406;1211;138126;-65
2023/07/21 09:29:43;;;;;;;2.30;1.30;;;;;;;20.36;49.84;100324.09;110660;1211;97878;-64
2023/07/21 09:32:16;;;;;;;4.00;1.20;;;;;;;20.45;49.72;100318.98;110433;1209;138354;-65
2023/07/21 09:34:54;;;;;;;5.80;1.50;;;;;;;20.54;49.87;100316.35;110897;1210;102960;-65
2023/07/21 09:37:21;;;;;;;4.90;0.90;;;;;;;20.66;49.27;100322.58;110622;1210;97904;-64
2023/07/21 09:39:52;;;;;;;2.90;0.90;;;;;;;20.79;48.85;100322.27;110481;1218;139028;-64
2023/07/21 09:42:21;;;;;;;8.40;1.50;;;;;;;20.85;48.78;100320.59;110691;1214;98867;-64
2023/07/21 09:44:48;;;;;;;2.20;0.90;;;;;;;20.87;48.85;100316.58;110439;1211;137555;-65
2023/07/21 09:47:16;;;;;;;0.90;0.90;;;;;;;20.91;48.78;100314.52;110581;1209;98241;-65
2023/07/21 09:49:41;;;;;;;1.60;0.80;;;;;;;21.02;48.51;100315.17;110565;1211;97693;-64
2023/07/21 09:52:11;;;;;;;4.70;0.80;;;;;;;21.08;48.11;100312.45;110488;1211;139459;-65
2023/07/21 09:54:39;;;;;;;0.90;0.90;;;;;;;21.13;47.92;100313.23;110558;1211;99033;-64
2023/07/21 09:57:06;;;;;;;3.50;0.80;;;;;;;21.17;47.81;100304.75;111704;1206;138274;-64
2023/07/21 09:59:34;;;;;;;2.60;1.10;;;;;;;21.22;47.86;100306.48;110972;1212;97581;-65
2023/07/21 10:02:02;;;;;;;2.70;1.00;;;;;;;21.31;47.49;100302.00;110533;1211;142370;-65
2023/07/21 10:04:28;;;;;;;2.30;1.00;;;;;;;21.35;47.37;100297.64;110605;1212;99708;-62
2023/07/21 10:06:58;;;;;;;3.10;1.40;;;;;;;21.40;47.15;100298.61;110619;1219;97681;-63
2023/07/21 10:09:26;;;;;;;2.80;1.10;;;;;;;21.52;46.97;100297.05;110569;1210;139657;-63
2023/07/21 10:11:51;;;;;;;2.00;0.90;;;;;;;21.62;46.97;100299.95;111236;1211;103000;-62
2023/07/21 10:14:34;;;;;;;2.90;1.20;;;;;;;21.67;46.13;100303.06;110516;1216;140475;-63
2023/07/21 10:17:00;;;;;;;2.90;1.30;;;;;;;21.68;45.97;100300.86;110658;1206;99802;-63
2023/07/21 10:19:29;;;;;;;2.40;1.10;;;;;;;21.68;45.77;100296.66;110610;1206;97518;-63
2023/07/21 10:21:54;;;;;;;7.60;1.40;;;;;;;21.76;45.55;100296.79;110619;1223;139038;-63
2023/07/21 10:24:27;;;;;;;3.60;1.20;;;;;;;21.84;45.68;100294.95;110653;1212;97748;-63
2023/07/21 10:27:00;;;;;;;4.70;0.80;;;;;;;21.93;45.70;100293.50;110398;1212;139583;-63
2023/07/21 10:29:25;;;;;;;5.40;0.70;;;;;;;21.97;45.34;100290.97;110716;1212;99671;-63
2023/07/21 10:31:52;;;;;;;2.50;0.90;;;;;;;22.05;45.50;100293.98;110450;1212;139250;-64
2023/07/21 10:34:17;;;;;;;2.40;1.00;;;;;;;22.19;45.23;100293.71;112436;1210;96758;-63
2023/07/21 10:36:49;;;;;;;1.40;1.30;;;;;;;22.32;45.28;100290.98;110576;1212;97661;-63
2023/07/21 10:39:22;;;;;;;3.70;1.00;;;;;;;22.35;44.70;100289.42;111152;1211;139810;-63
2023/07/21 10:42:04;;;;;;;4.40;0.90;;;;;;;22.38;44.81;100286.65;110661;1212;98407;-63
2023/07/21 10:44:35;;;;;;;8.20;1.20;;;;;;;22.52;44.99;100282.81;110496;1220;140975;-62
2023/07/21 10:47:01;;;;;;;4.30;1.30;;;;;;;22.69;44.98;100276.05;110544;1206;111617;-62
2023/07/21 10:49:26;;;;;;;2.40;1.00;;;;;;;22.79;44.72;100273.56;110655;1212;97708;-63
2023/07/21 10:51:52;;;;;;;4.00;1.30;;;;;;;22.96;44.88;100272.45;110523;1212;138410;-63
2023/07/21 10:54:17;;;;;;;5.30;0.80;;;;;;;23.11;44.92;100274.75;110695;1206;97597;-62
2023/07/21 10:56:45;;;;;;;1.40;1.00;;;;;;;23.15;44.50;100273.02;110608;1212;137898;-62
2023/07/21 10:59:12;;;;;;;3.10;1.00;;;;;;;23.15;44.27;100272.71;110958;1206;97580;-63
2023/07/21 11:01:44;;;;;;;1.90;0.60;;;;;;;23.17;44.16;100277.78;110542;1206;98980;-63
2023/07/21 11:04:11;;;;;;;2.10;1.00;;;;;;;23.14;43.99;100272.79;110729;1206;138037;-62
2023/07/21 11:06:43;;;;;;;6.10;1.50;;;;;;;23.17;43.78;100273.61;111535;1212;99343;-62
2023/07/21 11:09:12;;;;;;;3.80;0.90;;;;;;;23.32;43.89;100271.91;110509;1212;138612;-62
2023/07/21 11:11:41;;;;;;;4.70;1.20;;;;;;;23.38;43.45;100271.95;111204;1212;97399;-62